Main page
METAR-TAF:

METAR-TAF

Airports :

Radom Airport

Radom, Poland

latitude: 51-23-21N, longitude: 21-12-49E, elevation: 186 m

Current weather observation

The report was made 23 hours and 23 minutes ago, at 15:00 UTC
Wind 10 kt from the West/Northwest
Temperature 4°C
Humidity 93%
Pressure 1018 hPa
Visibility 10 km or more
Scattered clouds at a height of 2000 ft

METAR: EPRA 211500Z 30010KT 9999 SCT020 04/03 Q1018

Time: 15:23 (14:23 UTC)

Forecast

The report was made 21 hours and 23 minutes ago, at 17:00 UTC
Forecast valid from 21 at 18 UTC to 22 at 03 UTC
Wind 8 kt from the West
Visibility 10 km or more
Scattered clouds at a height of 4000 ft

TAF: EPRA 211700Z 2118/2203 27008KT 9999 SCT040

Weather observations and forecasts of more than 4000 airports (METAR and TAF reports).

The available stations are represented by yellow and red dots on the map.

Hover mouse over dot to see the name of the station.

Then click to see weather observations and forecasts.

To change the map : click on the green buttons with a black cross to zoom in, on the green button with a dash to zoom out, or on the green arrows for adjacent maps.


METAR-TAF: